<?xml version="1.0" encoding="UTF-8" standalone="no" ?>
<gpx xmlns="http://www.topografix.com/GPX/1/1" xmlns:xsi="http://www.w3.org/2001/XMLSchema-instance" xsi:schemaLocation="http://www.topografix.com/GPX/1/1 http://www.topografix.com/GPX/1/1/gpx.xsd" version="1.1" creator="VisuGPX - https://www.visugpx.com">
  <metadata>
    <name>sur les traces du tortillard</name>
    <desc><![CDATA[Circuit tranquille ,qui emprunte, l\'ancienne ligne du petit train qui reliait Valmondois à Marines]]></desc>
  </metadata>
  <trk>
    <name><![CDATA[20-MARS-14 13:55:37]]></name>
    <trkseg>
      <trkpt lat="49.14586" lon="1.97267">
        <ele>110.69</ele>
        <time>2014-03-20T08:24:50Z</time>
      </trkpt>
      <trkpt lat="49.14592" lon="1.97276">
        <ele>111.65</ele>
        <time>2014-03-20T08:35:41Z</time>
      </trkpt>
      <trkpt lat="49.146" lon="1.97234">
        <ele>112.13</ele>
        <time>2014-03-20T08:36:12Z</time>
      </trkpt>
      <trkpt lat="49.14603" lon="1.97197">
        <ele>112.13</ele>
        <time>2014-03-20T08:36:37Z</time>
      </trkpt>
      <trkpt lat="49.14603" lon="1.97153">
        <ele>111.17</ele>
        <time>2014-03-20T08:37:07Z</time>
      </trkpt>
      <trkpt lat="49.14602" lon="1.97106">
        <ele>109.73</ele>
        <time>2014-03-20T08:37:36Z</time>
      </trkpt>
      <trkpt lat="49.14599" lon="1.9706">
        <ele>107.32</ele>
        <time>2014-03-20T08:38:03Z</time>
      </trkpt>
      <trkpt lat="49.14595" lon="1.97029">
        <ele>107.32</ele>
        <time>2014-03-20T08:38:22Z</time>
      </trkpt>
      <trkpt lat="49.14595" lon="1.96999">
        <ele>106.84</ele>
        <time>2014-03-20T08:38:40Z</time>
      </trkpt>
      <trkpt lat="49.14595" lon="1.96965">
        <ele>106.36</ele>
        <time>2014-03-20T08:39:01Z</time>
      </trkpt>
      <trkpt lat="49.14593" lon="1.96931">
        <ele>106.36</ele>
        <time>2014-03-20T08:39:20Z</time>
      </trkpt>
      <trkpt lat="49.14591" lon="1.96899">
        <ele>105.4</ele>
        <time>2014-03-20T08:39:44Z</time>
      </trkpt>
      <trkpt lat="49.1458" lon="1.96875">
        <ele>104.92</ele>
        <time>2014-03-20T08:40:03Z</time>
      </trkpt>
      <trkpt lat="49.14579" lon="1.96843">
        <ele>104.44</ele>
        <time>2014-03-20T08:40:29Z</time>
      </trkpt>
      <trkpt lat="49.14585" lon="1.96798">
        <ele>103.96</ele>
        <time>2014-03-20T08:40:52Z</time>
      </trkpt>
      <trkpt lat="49.14593" lon="1.96767">
        <ele>104.44</ele>
        <time>2014-03-20T08:41:14Z</time>
      </trkpt>
      <trkpt lat="49.14603" lon="1.96738">
        <ele>104.44</ele>
        <time>2014-03-20T08:41:36Z</time>
      </trkpt>
      <trkpt lat="49.14613" lon="1.96707">
        <ele>103.96</ele>
        <time>2014-03-20T08:41:56Z</time>
      </trkpt>
      <trkpt lat="49.14621" lon="1.96681">
        <ele>104.44</ele>
        <time>2014-03-20T08:42:14Z</time>
      </trkpt>
      <trkpt lat="49.14611" lon="1.96661">
        <ele>102.52</ele>
        <time>2014-03-20T08:42:29Z</time>
      </trkpt>
      <trkpt lat="49.1461" lon="1.96634">
        <ele>103</ele>
        <time>2014-03-20T08:42:46Z</time>
      </trkpt>
      <trkpt lat="49.14611" lon="1.96607">
        <ele>103</ele>
        <time>2014-03-20T08:43:01Z</time>
      </trkpt>
      <trkpt lat="49.14612" lon="1.96578">
        <ele>103</ele>
        <time>2014-03-20T08:43:20Z</time>
      </trkpt>
      <trkpt lat="49.14614" lon="1.9655">
        <ele>102.52</ele>
        <time>2014-03-20T08:43:36Z</time>
      </trkpt>
      <trkpt lat="49.14615" lon="1.96523">
        <ele>103.48</ele>
        <time>2014-03-20T08:43:51Z</time>
      </trkpt>
      <trkpt lat="49.14617" lon="1.96497">
        <ele>103</ele>
        <time>2014-03-20T08:44:08Z</time>
      </trkpt>
      <trkpt lat="49.14619" lon="1.9647">
        <ele>103</ele>
        <time>2014-03-20T08:44:24Z</time>
      </trkpt>
      <trkpt lat="49.14621" lon="1.96441">
        <ele>102.04</ele>
        <time>2014-03-20T08:44:40Z</time>
      </trkpt>
      <trkpt lat="49.1462" lon="1.96413">
        <ele>102.04</ele>
        <time>2014-03-20T08:44:59Z</time>
      </trkpt>
      <trkpt lat="49.14607" lon="1.96401">
        <ele>104.44</ele>
        <time>2014-03-20T08:45:25Z</time>
      </trkpt>
      <trkpt lat="49.14586" lon="1.96412">
        <ele>106.84</ele>
        <time>2014-03-20T08:45:48Z</time>
      </trkpt>
      <trkpt lat="49.14567" lon="1.96421">
        <ele>108.29</ele>
        <time>2014-03-20T08:46:07Z</time>
      </trkpt>
      <trkpt lat="49.14546" lon="1.96424">
        <ele>109.73</ele>
        <time>2014-03-20T08:46:23Z</time>
      </trkpt>
      <trkpt lat="49.14525" lon="1.96427">
        <ele>109.73</ele>
        <time>2014-03-20T08:46:40Z</time>
      </trkpt>
      <trkpt lat="49.14507" lon="1.96431">
        <ele>110.21</ele>
        <time>2014-03-20T08:46:55Z</time>
      </trkpt>
      <trkpt lat="49.14489" lon="1.96433">
        <ele>111.65</ele>
        <time>2014-03-20T08:47:11Z</time>
      </trkpt>
      <trkpt lat="49.1447" lon="1.96437">
        <ele>111.65</ele>
        <time>2014-03-20T08:47:27Z</time>
      </trkpt>
      <trkpt lat="49.14452" lon="1.96441">
        <ele>112.13</ele>
        <time>2014-03-20T08:47:41Z</time>
      </trkpt>
      <trkpt lat="49.14434" lon="1.96445">
        <ele>111.65</ele>
        <time>2014-03-20T08:47:56Z</time>
      </trkpt>
      <trkpt lat="49.14415" lon="1.96452">
        <ele>112.13</ele>
        <time>2014-03-20T08:48:11Z</time>
      </trkpt>
      <trkpt lat="49.14398" lon="1.96455">
        <ele>112.13</ele>
        <time>2014-03-20T08:48:26Z</time>
      </trkpt>
      <trkpt lat="49.14379" lon="1.96459">
        <ele>112.61</ele>
        <time>2014-03-20T08:48:42Z</time>
      </trkpt>
      <trkpt lat="49.1436" lon="1.96462">
        <ele>113.09</ele>
        <time>2014-03-20T08:48:59Z</time>
      </trkpt>
      <trkpt lat="49.14342" lon="1.96466">
        <ele>113.09</ele>
        <time>2014-03-20T08:49:15Z</time>
      </trkpt>
      <trkpt lat="49.14324" lon="1.9647">
        <ele>113.57</ele>
        <time>2014-03-20T08:49:33Z</time>
      </trkpt>
      <trkpt lat="49.14306" lon="1.96475">
        <ele>114.53</ele>
        <time>2014-03-20T08:49:52Z</time>
      </trkpt>
      <trkpt lat="49.14287" lon="1.9648">
        <ele>115.01</ele>
        <time>2014-03-20T08:50:11Z</time>
      </trkpt>
      <trkpt lat="49.14268" lon="1.96487">
        <ele>115.5</ele>
        <time>2014-03-20T08:50:29Z</time>
      </trkpt>
      <trkpt lat="49.14249" lon="1.96492">
        <ele>115.98</ele>
        <time>2014-03-20T08:50:46Z</time>
      </trkpt>
      <trkpt lat="49.14229" lon="1.96495">
        <ele>116.46</ele>
        <time>2014-03-20T08:51:03Z</time>
      </trkpt>
      <trkpt lat="49.1421" lon="1.96491">
        <ele>117.42</ele>
        <time>2014-03-20T08:51:19Z</time>
      </trkpt>
      <trkpt lat="49.14194" lon="1.96479">
        <ele>117.9</ele>
        <time>2014-03-20T08:51:35Z</time>
      </trkpt>
      <trkpt lat="49.14177" lon="1.96465">
        <ele>117.9</ele>
        <time>2014-03-20T08:51:52Z</time>
      </trkpt>
      <trkpt lat="49.1416" lon="1.96456">
        <ele>118.38</ele>
        <time>2014-03-20T08:52:08Z</time>
      </trkpt>
      <trkpt lat="49.14142" lon="1.96453">
        <ele>118.38</ele>
        <time>2014-03-20T08:52:23Z</time>
      </trkpt>
      <trkpt lat="49.14125" lon="1.96459">
        <ele>117.9</ele>
        <time>2014-03-20T08:52:39Z</time>
      </trkpt>
      <trkpt lat="49.14109" lon="1.96473">
        <ele>117.42</ele>
        <time>2014-03-20T08:52:55Z</time>
      </trkpt>
      <trkpt lat="49.14099" lon="1.96485">
        <ele>117.9</ele>
        <time>2014-03-20T08:53:14Z</time>
      </trkpt>
      <trkpt lat="49.14082" lon="1.965">
        <ele>116.46</ele>
        <time>2014-03-20T08:53:41Z</time>
      </trkpt>
      <trkpt lat="49.14075" lon="1.96525">
        <ele>116.94</ele>
        <time>2014-03-20T08:54:01Z</time>
      </trkpt>
      <trkpt lat="49.1408" lon="1.96552">
        <ele>117.42</ele>
        <time>2014-03-20T08:54:20Z</time>
      </trkpt>
      <trkpt lat="49.14088" lon="1.96575">
        <ele>116.46</ele>
        <time>2014-03-20T08:54:37Z</time>
      </trkpt>
      <trkpt lat="49.14091" lon="1.96602">
        <ele>116.46</ele>
        <time>2014-03-20T08:54:55Z</time>
      </trkpt>
      <trkpt lat="49.1408" lon="1.96623">
        <ele>116.46</ele>
        <time>2014-03-20T08:55:13Z</time>
      </trkpt>
      <trkpt lat="49.14065" lon="1.96639">
        <ele>115.98</ele>
        <time>2014-03-20T08:55:29Z</time>
      </trkpt>
      <trkpt lat="49.1405" lon="1.96654">
        <ele>115.98</ele>
        <time>2014-03-20T08:55:45Z</time>
      </trkpt>
      <trkpt lat="49.14033" lon="1.96672">
        <ele>115.98</ele>
        <time>2014-03-20T08:56:02Z</time>
      </trkpt>
      <trkpt lat="49.14018" lon="1.9669">
        <ele>115.01</ele>
        <time>2014-03-20T08:56:19Z</time>
      </trkpt>
      <trkpt lat="49.14004" lon="1.96709">
        <ele>115.98</ele>
        <time>2014-03-20T08:56:36Z</time>
      </trkpt>
      <trkpt lat="49.13991" lon="1.96728">
        <ele>115.98</ele>
        <time>2014-03-20T08:56:53Z</time>
      </trkpt>
      <trkpt lat="49.13978" lon="1.96747">
        <ele>115.5</ele>
        <time>2014-03-20T08:57:10Z</time>
      </trkpt>
      <trkpt lat="49.13963" lon="1.96765">
        <ele>115.98</ele>
        <time>2014-03-20T08:57:27Z</time>
      </trkpt>
      <trkpt lat="49.13947" lon="1.96785">
        <ele>115.5</ele>
        <time>2014-03-20T08:57:45Z</time>
      </trkpt>
      <trkpt lat="49.13933" lon="1.96803">
        <ele>115.01</ele>
        <time>2014-03-20T08:58:02Z</time>
      </trkpt>
      <trkpt lat="49.1392" lon="1.96821">
        <ele>115.01</ele>
        <time>2014-03-20T08:58:19Z</time>
      </trkpt>
      <trkpt lat="49.13904" lon="1.96838">
        <ele>115.5</ele>
        <time>2014-03-20T08:58:36Z</time>
      </trkpt>
      <trkpt lat="49.1389" lon="1.96857">
        <ele>115.01</ele>
        <time>2014-03-20T08:58:53Z</time>
      </trkpt>
      <trkpt lat="49.13874" lon="1.96874">
        <ele>115.01</ele>
        <time>2014-03-20T08:59:10Z</time>
      </trkpt>
      <trkpt lat="49.1386" lon="1.96892">
        <ele>114.53</ele>
        <time>2014-03-20T08:59:27Z</time>
      </trkpt>
      <trkpt lat="49.13845" lon="1.9691">
        <ele>114.05</ele>
        <time>2014-03-20T08:59:44Z</time>
      </trkpt>
      <trkpt lat="49.13829" lon="1.96926">
        <ele>114.53</ele>
        <time>2014-03-20T09:00:02Z</time>
      </trkpt>
      <trkpt lat="49.13813" lon="1.96944">
        <ele>114.05</ele>
        <time>2014-03-20T09:00:20Z</time>
      </trkpt>
      <trkpt lat="49.13798" lon="1.96962">
        <ele>114.05</ele>
        <time>2014-03-20T09:00:36Z</time>
      </trkpt>
      <trkpt lat="49.13783" lon="1.9698">
        <ele>113.57</ele>
        <time>2014-03-20T09:00:52Z</time>
      </trkpt>
      <trkpt lat="49.13769" lon="1.97">
        <ele>114.53</ele>
        <time>2014-03-20T09:01:09Z</time>
      </trkpt>
      <trkpt lat="49.13753" lon="1.97019">
        <ele>114.05</ele>
        <time>2014-03-20T09:01:26Z</time>
      </trkpt>
      <trkpt lat="49.13732" lon="1.97026">
        <ele>114.05</ele>
        <time>2014-03-20T09:01:52Z</time>
      </trkpt>
      <trkpt lat="49.13706" lon="1.97032">
        <ele>114.05</ele>
        <time>2014-03-20T09:02:19Z</time>
      </trkpt>
      <trkpt lat="49.13681" lon="1.97051">
        <ele>114.05</ele>
        <time>2014-03-20T09:02:52Z</time>
      </trkpt>
      <trkpt lat="49.13658" lon="1.97074">
        <ele>114.05</ele>
        <time>2014-03-20T09:03:14Z</time>
      </trkpt>
      <trkpt lat="49.13639" lon="1.97094">
        <ele>115.01</ele>
        <time>2014-03-20T09:03:37Z</time>
      </trkpt>
      <trkpt lat="49.1362" lon="1.97115">
        <ele>115.5</ele>
        <time>2014-03-20T09:03:58Z</time>
      </trkpt>
      <trkpt lat="49.13608" lon="1.97138">
        <ele>115.98</ele>
        <time>2014-03-20T09:04:20Z</time>
      </trkpt>
      <trkpt lat="49.13596" lon="1.97167">
        <ele>116.94</ele>
        <time>2014-03-20T09:04:42Z</time>
      </trkpt>
      <trkpt lat="49.13584" lon="1.97199">
        <ele>117.42</ele>
        <time>2014-03-20T09:05:04Z</time>
      </trkpt>
      <trkpt lat="49.13572" lon="1.97226">
        <ele>117.9</ele>
        <time>2014-03-20T09:05:24Z</time>
      </trkpt>
      <trkpt lat="49.13562" lon="1.97257">
        <ele>118.86</ele>
        <time>2014-03-20T09:05:46Z</time>
      </trkpt>
      <trkpt lat="49.13544" lon="1.97275">
        <ele>119.82</ele>
        <time>2014-03-20T09:06:04Z</time>
      </trkpt>
      <trkpt lat="49.13524" lon="1.97286">
        <ele>120.3</ele>
        <time>2014-03-20T09:06:22Z</time>
      </trkpt>
      <trkpt lat="49.13504" lon="1.97294">
        <ele>120.78</ele>
        <time>2014-03-20T09:06:41Z</time>
      </trkpt>
      <trkpt lat="49.13487" lon="1.97305">
        <ele>121.74</ele>
        <time>2014-03-20T09:06:59Z</time>
      </trkpt>
      <trkpt lat="49.13472" lon="1.97317">
        <ele>122.71</ele>
        <time>2014-03-20T09:07:17Z</time>
      </trkpt>
      <trkpt lat="49.13456" lon="1.97329">
        <ele>124.15</ele>
        <time>2014-03-20T09:07:40Z</time>
      </trkpt>
      <trkpt lat="49.1344" lon="1.97344">
        <ele>124.63</ele>
        <time>2014-03-20T09:07:59Z</time>
      </trkpt>
      <trkpt lat="49.13424" lon="1.97359">
        <ele>127.03</ele>
        <time>2014-03-20T09:08:18Z</time>
      </trkpt>
      <trkpt lat="49.13409" lon="1.97375">
        <ele>127.51</ele>
        <time>2014-03-20T09:08:35Z</time>
      </trkpt>
      <trkpt lat="49.13396" lon="1.97394">
        <ele>128.47</ele>
        <time>2014-03-20T09:08:52Z</time>
      </trkpt>
      <trkpt lat="49.13383" lon="1.97413">
        <ele>129.43</ele>
        <time>2014-03-20T09:09:10Z</time>
      </trkpt>
      <trkpt lat="49.13371" lon="1.97434">
        <ele>129.43</ele>
        <time>2014-03-20T09:09:27Z</time>
      </trkpt>
      <trkpt lat="49.1336" lon="1.97454">
        <ele>129.43</ele>
        <time>2014-03-20T09:09:43Z</time>
      </trkpt>
      <trkpt lat="49.13347" lon="1.97473">
        <ele>128.95</ele>
        <time>2014-03-20T09:09:59Z</time>
      </trkpt>
      <trkpt lat="49.13335" lon="1.97495">
        <ele>127.99</ele>
        <time>2014-03-20T09:10:16Z</time>
      </trkpt>
      <trkpt lat="49.13322" lon="1.97515">
        <ele>127.99</ele>
        <time>2014-03-20T09:10:32Z</time>
      </trkpt>
      <trkpt lat="49.13311" lon="1.97535">
        <ele>127.03</ele>
        <time>2014-03-20T09:10:48Z</time>
      </trkpt>
      <trkpt lat="49.13299" lon="1.97558">
        <ele>126.55</ele>
        <time>2014-03-20T09:11:05Z</time>
      </trkpt>
      <trkpt lat="49.13289" lon="1.97581">
        <ele>125.11</ele>
        <time>2014-03-20T09:11:21Z</time>
      </trkpt>
      <trkpt lat="49.1328" lon="1.97606">
        <ele>124.63</ele>
        <time>2014-03-20T09:11:38Z</time>
      </trkpt>
      <trkpt lat="49.13271" lon="1.97633">
        <ele>123.67</ele>
        <time>2014-03-20T09:11:56Z</time>
      </trkpt>
      <trkpt lat="49.13262" lon="1.97659">
        <ele>122.71</ele>
        <time>2014-03-20T09:12:12Z</time>
      </trkpt>
      <trkpt lat="49.13257" lon="1.97686">
        <ele>121.74</ele>
        <time>2014-03-20T09:12:29Z</time>
      </trkpt>
      <trkpt lat="49.13251" lon="1.97712">
        <ele>119.34</ele>
        <time>2014-03-20T09:12:45Z</time>
      </trkpt>
      <trkpt lat="49.13243" lon="1.97739">
        <ele>118.38</ele>
        <time>2014-03-20T09:13:02Z</time>
      </trkpt>
      <trkpt lat="49.13233" lon="1.97763">
        <ele>116.94</ele>
        <time>2014-03-20T09:13:19Z</time>
      </trkpt>
      <trkpt lat="49.1322" lon="1.97784">
        <ele>115.01</ele>
        <time>2014-03-20T09:13:37Z</time>
      </trkpt>
      <trkpt lat="49.1321" lon="1.97807">
        <ele>114.05</ele>
        <time>2014-03-20T09:13:54Z</time>
      </trkpt>
      <trkpt lat="49.13198" lon="1.97828">
        <ele>113.09</ele>
        <time>2014-03-20T09:14:10Z</time>
      </trkpt>
      <trkpt lat="49.13186" lon="1.9785">
        <ele>112.61</ele>
        <time>2014-03-20T09:14:25Z</time>
      </trkpt>
      <trkpt lat="49.13174" lon="1.97872">
        <ele>110.21</ele>
        <time>2014-03-20T09:14:41Z</time>
      </trkpt>
      <trkpt lat="49.13163" lon="1.97895">
        <ele>109.25</ele>
        <time>2014-03-20T09:14:58Z</time>
      </trkpt>
      <trkpt lat="49.13152" lon="1.9792">
        <ele>107.81</ele>
        <time>2014-03-20T09:15:15Z</time>
      </trkpt>
      <trkpt lat="49.13142" lon="1.97943">
        <ele>105.88</ele>
        <time>2014-03-20T09:15:31Z</time>
      </trkpt>
      <trkpt lat="49.13133" lon="1.97969">
        <ele>104.92</ele>
        <time>2014-03-20T09:15:48Z</time>
      </trkpt>
      <trkpt lat="49.13123" lon="1.97992">
        <ele>103.96</ele>
        <time>2014-03-20T09:16:05Z</time>
      </trkpt>
      <trkpt lat="49.13113" lon="1.98017">
        <ele>102.52</ele>
        <time>2014-03-20T09:16:22Z</time>
      </trkpt>
      <trkpt lat="49.13099" lon="1.9804">
        <ele>102.04</ele>
        <time>2014-03-20T09:16:39Z</time>
      </trkpt>
      <trkpt lat="49.13083" lon="1.98062">
        <ele>100.6</ele>
        <time>2014-03-20T09:16:58Z</time>
      </trkpt>
      <trkpt lat="49.13066" lon="1.98081">
        <ele>100.6</ele>
        <time>2014-03-20T09:17:14Z</time>
      </trkpt>
      <trkpt lat="49.13051" lon="1.981">
        <ele>99.15</ele>
        <time>2014-03-20T09:17:31Z</time>
      </trkpt>
      <trkpt lat="49.13047" lon="1.9813">
        <ele>99.63</ele>
        <time>2014-03-20T09:17:49Z</time>
      </trkpt>
      <trkpt lat="49.13048" lon="1.98158">
        <ele>99.63</ele>
        <time>2014-03-20T09:18:07Z</time>
      </trkpt>
      <trkpt lat="49.13064" lon="1.98181">
        <ele>100.6</ele>
        <time>2014-03-20T09:18:25Z</time>
      </trkpt>
      <trkpt lat="49.13081" lon="1.98189">
        <ele>101.56</ele>
        <time>2014-03-20T09:18:42Z</time>
      </trkpt>
      <trkpt lat="49.13097" lon="1.98198">
        <ele>102.52</ele>
        <time>2014-03-20T09:18:59Z</time>
      </trkpt>
      <trkpt lat="49.13115" lon="1.98202">
        <ele>102.52</ele>
        <time>2014-03-20T09:19:17Z</time>
      </trkpt>
      <trkpt lat="49.13134" lon="1.98208">
        <ele>103.48</ele>
        <time>2014-03-20T09:19:37Z</time>
      </trkpt>
      <trkpt lat="49.13154" lon="1.98207">
        <ele>103</ele>
        <time>2014-03-20T09:19:56Z</time>
      </trkpt>
      <trkpt lat="49.13173" lon="1.98206">
        <ele>102.52</ele>
        <time>2014-03-20T09:20:13Z</time>
      </trkpt>
      <trkpt lat="49.13193" lon="1.98221">
        <ele>103</ele>
        <time>2014-03-20T09:20:31Z</time>
      </trkpt>
      <trkpt lat="49.13213" lon="1.98227">
        <ele>102.04</ele>
        <time>2014-03-20T09:20:48Z</time>
      </trkpt>
      <trkpt lat="49.13233" lon="1.98232">
        <ele>103</ele>
        <time>2014-03-20T09:21:05Z</time>
      </trkpt>
      <trkpt lat="49.13252" lon="1.98238">
        <ele>103.96</ele>
        <time>2014-03-20T09:21:20Z</time>
      </trkpt>
      <trkpt lat="49.13268" lon="1.98231">
        <ele>103</ele>
        <time>2014-03-20T09:21:36Z</time>
      </trkpt>
      <trkpt lat="49.13278" lon="1.98212">
        <ele>102.04</ele>
        <time>2014-03-20T09:21:55Z</time>
      </trkpt>
      <trkpt lat="49.13295" lon="1.98206">
        <ele>102.52</ele>
        <time>2014-03-20T09:22:12Z</time>
      </trkpt>
      <trkpt lat="49.13317" lon="1.98214">
        <ele>103</ele>
        <time>2014-03-20T09:22:29Z</time>
      </trkpt>
      <trkpt lat="49.13337" lon="1.9822">
        <ele>103</ele>
        <time>2014-03-20T09:22:48Z</time>
      </trkpt>
      <trkpt lat="49.13357" lon="1.98234">
        <ele>103.96</ele>
        <time>2014-03-20T09:23:07Z</time>
      </trkpt>
      <trkpt lat="49.1338" lon="1.98242">
        <ele>104.44</ele>
        <time>2014-03-20T09:23:27Z</time>
      </trkpt>
      <trkpt lat="49.13401" lon="1.98249">
        <ele>104.92</ele>
        <time>2014-03-20T09:23:48Z</time>
      </trkpt>
      <trkpt lat="49.13423" lon="1.98257">
        <ele>105.88</ele>
        <time>2014-03-20T09:24:08Z</time>
      </trkpt>
      <trkpt lat="49.13444" lon="1.98263">
        <ele>106.36</ele>
        <time>2014-03-20T09:24:28Z</time>
      </trkpt>
      <trkpt lat="49.13465" lon="1.9827">
        <ele>106.36</ele>
        <time>2014-03-20T09:24:49Z</time>
      </trkpt>
      <trkpt lat="49.13487" lon="1.98282">
        <ele>106.36</ele>
        <time>2014-03-20T09:25:10Z</time>
      </trkpt>
      <trkpt lat="49.13508" lon="1.98294">
        <ele>105.88</ele>
        <time>2014-03-20T09:25:30Z</time>
      </trkpt>
      <trkpt lat="49.13527" lon="1.98308">
        <ele>105.4</ele>
        <time>2014-03-20T09:25:50Z</time>
      </trkpt>
      <trkpt lat="49.1355" lon="1.98321">
        <ele>104.44</ele>
        <time>2014-03-20T09:26:09Z</time>
      </trkpt>
      <trkpt lat="49.13565" lon="1.98338">
        <ele>103.48</ele>
        <time>2014-03-20T09:26:31Z</time>
      </trkpt>
      <trkpt lat="49.13583" lon="1.98355">
        <ele>103.96</ele>
        <time>2014-03-20T09:26:51Z</time>
      </trkpt>
      <trkpt lat="49.13597" lon="1.98375">
        <ele>103.96</ele>
        <time>2014-03-20T09:27:11Z</time>
      </trkpt>
      <trkpt lat="49.13616" lon="1.98393">
        <ele>104.92</ele>
        <time>2014-03-20T09:27:32Z</time>
      </trkpt>
      <trkpt lat="49.13636" lon="1.98413">
        <ele>104.92</ele>
        <time>2014-03-20T09:27:51Z</time>
      </trkpt>
      <trkpt lat="49.13655" lon="1.98432">
        <ele>104.92</ele>
        <time>2014-03-20T09:28:11Z</time>
      </trkpt>
      <trkpt lat="49.13674" lon="1.98451">
        <ele>105.4</ele>
        <time>2014-03-20T09:28:33Z</time>
      </trkpt>
      <trkpt lat="49.13694" lon="1.98466">
        <ele>105.4</ele>
        <time>2014-03-20T09:28:54Z</time>
      </trkpt>
      <trkpt lat="49.13713" lon="1.98477">
        <ele>105.88</ele>
        <time>2014-03-20T09:29:16Z</time>
      </trkpt>
      <trkpt lat="49.13734" lon="1.98489">
        <ele>106.36</ele>
        <time>2014-03-20T09:29:37Z</time>
      </trkpt>
      <trkpt lat="49.13756" lon="1.9849">
        <ele>106.36</ele>
        <time>2014-03-20T09:29:56Z</time>
      </trkpt>
      <trkpt lat="49.13775" lon="1.98487">
        <ele>106.84</ele>
        <time>2014-03-20T09:30:14Z</time>
      </trkpt>
      <trkpt lat="49.13795" lon="1.98483">
        <ele>106.84</ele>
        <time>2014-03-20T09:30:33Z</time>
      </trkpt>
      <trkpt lat="49.13817" lon="1.98477">
        <ele>106.36</ele>
        <time>2014-03-20T09:30:53Z</time>
      </trkpt>
      <trkpt lat="49.13838" lon="1.98471">
        <ele>106.36</ele>
        <time>2014-03-20T09:31:13Z</time>
      </trkpt>
      <trkpt lat="49.13859" lon="1.98469">
        <ele>106.84</ele>
        <time>2014-03-20T09:31:31Z</time>
      </trkpt>
      <trkpt lat="49.1388" lon="1.9846">
        <ele>107.32</ele>
        <time>2014-03-20T09:31:52Z</time>
      </trkpt>
      <trkpt lat="49.13901" lon="1.98452">
        <ele>107.81</ele>
        <time>2014-03-20T09:32:13Z</time>
      </trkpt>
      <trkpt lat="49.13925" lon="1.98446">
        <ele>110.21</ele>
        <time>2014-03-20T09:32:35Z</time>
      </trkpt>
      <trkpt lat="49.13939" lon="1.9846">
        <ele>110.21</ele>
        <time>2014-03-20T09:33:27Z</time>
      </trkpt>
      <trkpt lat="49.13954" lon="1.98487">
        <ele>111.17</ele>
        <time>2014-03-20T09:33:49Z</time>
      </trkpt>
      <trkpt lat="49.13953" lon="1.98517">
        <ele>111.65</ele>
        <time>2014-03-20T09:34:06Z</time>
      </trkpt>
      <trkpt lat="49.13947" lon="1.98545">
        <ele>112.61</ele>
        <time>2014-03-20T09:34:23Z</time>
      </trkpt>
      <trkpt lat="49.13941" lon="1.98572">
        <ele>112.61</ele>
        <time>2014-03-20T09:34:41Z</time>
      </trkpt>
      <trkpt lat="49.13934" lon="1.98602">
        <ele>114.05</ele>
        <time>2014-03-20T09:35:00Z</time>
      </trkpt>
      <trkpt lat="49.1393" lon="1.98632">
        <ele>114.05</ele>
        <time>2014-03-20T09:35:19Z</time>
      </trkpt>
      <trkpt lat="49.13921" lon="1.98662">
        <ele>115.01</ele>
        <time>2014-03-20T09:35:37Z</time>
      </trkpt>
      <trkpt lat="49.13915" lon="1.98691">
        <ele>115.01</ele>
        <time>2014-03-20T09:35:55Z</time>
      </trkpt>
      <trkpt lat="49.13907" lon="1.98722">
        <ele>115.5</ele>
        <time>2014-03-20T09:36:12Z</time>
      </trkpt>
      <trkpt lat="49.13901" lon="1.98749">
        <ele>115.98</ele>
        <time>2014-03-20T09:36:29Z</time>
      </trkpt>
      <trkpt lat="49.13892" lon="1.98778">
        <ele>115.98</ele>
        <time>2014-03-20T09:36:46Z</time>
      </trkpt>
      <trkpt lat="49.13885" lon="1.98807">
        <ele>116.46</ele>
        <time>2014-03-20T09:37:02Z</time>
      </trkpt>
      <trkpt lat="49.13879" lon="1.98835">
        <ele>116.46</ele>
        <time>2014-03-20T09:37:19Z</time>
      </trkpt>
      <trkpt lat="49.13873" lon="1.98863">
        <ele>116.46</ele>
        <time>2014-03-20T09:37:34Z</time>
      </trkpt>
      <trkpt lat="49.13866" lon="1.98888">
        <ele>117.42</ele>
        <time>2014-03-20T09:37:57Z</time>
      </trkpt>
      <trkpt lat="49.13868" lon="1.98914">
        <ele>117.9</ele>
        <time>2014-03-20T09:38:16Z</time>
      </trkpt>
      <trkpt lat="49.13868" lon="1.98941">
        <ele>117.9</ele>
        <time>2014-03-20T09:38:32Z</time>
      </trkpt>
      <trkpt lat="49.1387" lon="1.98967">
        <ele>117.9</ele>
        <time>2014-03-20T09:38:48Z</time>
      </trkpt>
      <trkpt lat="49.13872" lon="1.98992">
        <ele>117.9</ele>
        <time>2014-03-20T09:39:03Z</time>
      </trkpt>
      <trkpt lat="49.13872" lon="1.99021">
        <ele>118.38</ele>
        <time>2014-03-20T09:39:19Z</time>
      </trkpt>
      <trkpt lat="49.13873" lon="1.99048">
        <ele>119.34</ele>
        <time>2014-03-20T09:39:33Z</time>
      </trkpt>
      <trkpt lat="49.13874" lon="1.99075">
        <ele>118.86</ele>
        <time>2014-03-20T09:39:48Z</time>
      </trkpt>
      <trkpt lat="49.13875" lon="1.99101">
        <ele>119.34</ele>
        <time>2014-03-20T09:40:04Z</time>
      </trkpt>
      <trkpt lat="49.13876" lon="1.99128">
        <ele>119.34</ele>
        <time>2014-03-20T09:40:20Z</time>
      </trkpt>
      <trkpt lat="49.13877" lon="1.99156">
        <ele>119.82</ele>
        <time>2014-03-20T09:40:35Z</time>
      </trkpt>
      <trkpt lat="49.13879" lon="1.99185">
        <ele>119.82</ele>
        <time>2014-03-20T09:40:52Z</time>
      </trkpt>
      <trkpt lat="49.13878" lon="1.99213">
        <ele>120.3</ele>
        <time>2014-03-20T09:41:08Z</time>
      </trkpt>
      <trkpt lat="49.13876" lon="1.99241">
        <ele>120.78</ele>
        <time>2014-03-20T09:41:24Z</time>
      </trkpt>
      <trkpt lat="49.13872" lon="1.99268">
        <ele>121.74</ele>
        <time>2014-03-20T09:41:39Z</time>
      </trkpt>
      <trkpt lat="49.1387" lon="1.99296">
        <ele>121.26</ele>
        <time>2014-03-20T09:41:55Z</time>
      </trkpt>
      <trkpt lat="49.13874" lon="1.99318">
        <ele>121.74</ele>
        <time>2014-03-20T09:42:21Z</time>
      </trkpt>
      <trkpt lat="49.13881" lon="1.99344">
        <ele>123.67</ele>
        <time>2014-03-20T09:42:49Z</time>
      </trkpt>
      <trkpt lat="49.13891" lon="1.99369">
        <ele>125.11</ele>
        <time>2014-03-20T09:43:06Z</time>
      </trkpt>
      <trkpt lat="49.139" lon="1.99394">
        <ele>126.07</ele>
        <time>2014-03-20T09:43:23Z</time>
      </trkpt>
      <trkpt lat="49.1391" lon="1.99419">
        <ele>127.03</ele>
        <time>2014-03-20T09:43:40Z</time>
      </trkpt>
      <trkpt lat="49.13921" lon="1.99445">
        <ele>127.99</ele>
        <time>2014-03-20T09:43:58Z</time>
      </trkpt>
      <trkpt lat="49.13929" lon="1.99472">
        <ele>128.95</ele>
        <time>2014-03-20T09:44:16Z</time>
      </trkpt>
      <trkpt lat="49.13937" lon="1.99499">
        <ele>129.92</ele>
        <time>2014-03-20T09:44:33Z</time>
      </trkpt>
      <trkpt lat="49.13945" lon="1.99525">
        <ele>131.36</ele>
        <time>2014-03-20T09:44:49Z</time>
      </trkpt>
      <trkpt lat="49.13954" lon="1.9955">
        <ele>132.8</ele>
        <time>2014-03-20T09:45:05Z</time>
      </trkpt>
      <trkpt lat="49.13962" lon="1.99576">
        <ele>133.28</ele>
        <time>2014-03-20T09:45:22Z</time>
      </trkpt>
      <trkpt lat="49.1397" lon="1.99602">
        <ele>134.72</ele>
        <time>2014-03-20T09:45:39Z</time>
      </trkpt>
      <trkpt lat="49.13978" lon="1.99628">
        <ele>135.2</ele>
        <time>2014-03-20T09:45:56Z</time>
      </trkpt>
      <trkpt lat="49.13983" lon="1.99656">
        <ele>135.68</ele>
        <time>2014-03-20T09:46:14Z</time>
      </trkpt>
      <trkpt lat="49.13989" lon="1.99683">
        <ele>135.68</ele>
        <time>2014-03-20T09:46:30Z</time>
      </trkpt>
      <trkpt lat="49.13993" lon="1.99712">
        <ele>135.68</ele>
        <time>2014-03-20T09:46:48Z</time>
      </trkpt>
      <trkpt lat="49.13997" lon="1.9974">
        <ele>136.64</ele>
        <time>2014-03-20T09:47:05Z</time>
      </trkpt>
      <trkpt lat="49.14001" lon="1.99769">
        <ele>136.64</ele>
        <time>2014-03-20T09:47:22Z</time>
      </trkpt>
      <trkpt lat="49.14005" lon="1.99798">
        <ele>136.16</ele>
        <time>2014-03-20T09:47:38Z</time>
      </trkpt>
      <trkpt lat="49.14007" lon="1.99818">
        <ele>136.16</ele>
        <time>2014-03-20T09:49:32Z</time>
      </trkpt>
      <trkpt lat="49.1401" lon="1.99849">
        <ele>136.64</ele>
        <time>2014-03-20T09:49:52Z</time>
      </trkpt>
      <trkpt lat="49.14012" lon="1.9988">
        <ele>136.16</ele>
        <time>2014-03-20T09:50:12Z</time>
      </trkpt>
      <trkpt lat="49.14013" lon="1.9991">
        <ele>135.2</ele>
        <time>2014-03-20T09:50:30Z</time>
      </trkpt>
      <trkpt lat="49.14016" lon="1.9994">
        <ele>135.2</ele>
        <time>2014-03-20T09:50:49Z</time>
      </trkpt>
      <trkpt lat="49.1402" lon="1.9997">
        <ele>133.76</ele>
        <time>2014-03-20T09:51:06Z</time>
      </trkpt>
      <trkpt lat="49.14023" lon="1.99998">
        <ele>133.76</ele>
        <time>2014-03-20T09:51:24Z</time>
      </trkpt>
      <trkpt lat="49.14027" lon="2.00026">
        <ele>134.24</ele>
        <time>2014-03-20T09:51:42Z</time>
      </trkpt>
      <trkpt lat="49.14032" lon="2.00054">
        <ele>134.24</ele>
        <time>2014-03-20T09:52:00Z</time>
      </trkpt>
      <trkpt lat="49.14034" lon="2.00083">
        <ele>133.28</ele>
        <time>2014-03-20T09:52:21Z</time>
      </trkpt>
      <trkpt lat="49.14037" lon="2.0012">
        <ele>132.8</ele>
        <time>2014-03-20T09:52:46Z</time>
      </trkpt>
      <trkpt lat="49.14039" lon="2.0016">
        <ele>132.8</ele>
        <time>2014-03-20T09:53:10Z</time>
      </trkpt>
      <trkpt lat="49.14045" lon="2.00202">
        <ele>131.84</ele>
        <time>2014-03-20T09:53:34Z</time>
      </trkpt>
      <trkpt lat="49.1405" lon="2.00242">
        <ele>131.36</ele>
        <time>2014-03-20T09:53:58Z</time>
      </trkpt>
      <trkpt lat="49.14052" lon="2.00283">
        <ele>130.88</ele>
        <time>2014-03-20T09:54:21Z</time>
      </trkpt>
      <trkpt lat="49.1406" lon="2.00321">
        <ele>130.4</ele>
        <time>2014-03-20T09:54:44Z</time>
      </trkpt>
      <trkpt lat="49.14062" lon="2.00364">
        <ele>130.4</ele>
        <time>2014-03-20T09:55:11Z</time>
      </trkpt>
      <trkpt lat="49.14065" lon="2.00407">
        <ele>130.4</ele>
        <time>2014-03-20T09:55:39Z</time>
      </trkpt>
      <trkpt lat="49.14064" lon="2.00449">
        <ele>130.4</ele>
        <time>2014-03-20T09:56:01Z</time>
      </trkpt>
      <trkpt lat="49.14063" lon="2.00477">
        <ele>130.4</ele>
        <time>2014-03-20T09:56:26Z</time>
      </trkpt>
      <trkpt lat="49.14066" lon="2.00494">
        <ele>131.36</ele>
        <time>2014-03-20T09:57:00Z</time>
      </trkpt>
      <trkpt lat="49.14066" lon="2.00501">
        <ele>129.43</ele>
        <time>2014-03-20T09:57:50Z</time>
      </trkpt>
      <trkpt lat="49.14062" lon="2.00548">
        <ele>129.92</ele>
        <time>2014-03-20T09:58:28Z</time>
      </trkpt>
      <trkpt lat="49.14045" lon="2.00661">
        <ele>130.4</ele>
        <time>2014-03-20T09:59:02Z</time>
      </trkpt>
      <trkpt lat="49.14033" lon="2.00718">
        <ele>130.4</ele>
        <time>2014-03-20T09:59:41Z</time>
      </trkpt>
      <trkpt lat="49.14026" lon="2.00724">
        <ele>131.36</ele>
        <time>2014-03-20T10:01:07Z</time>
      </trkpt>
      <trkpt lat="49.14021" lon="2.00763">
        <ele>132.32</ele>
        <time>2014-03-20T10:09:10Z</time>
      </trkpt>
      <trkpt lat="49.14018" lon="2.00781">
        <ele>132.8</ele>
        <time>2014-03-20T10:13:29Z</time>
      </trkpt>
      <trkpt lat="49.14018" lon="2.00831">
        <ele>133.76</ele>
        <time>2014-03-20T10:14:15Z</time>
      </trkpt>
      <trkpt lat="49.14009" lon="2.00878">
        <ele>134.24</ele>
        <time>2014-03-20T10:14:43Z</time>
      </trkpt>
      <trkpt lat="49.13998" lon="2.00922">
        <ele>133.28</ele>
        <time>2014-03-20T10:15:11Z</time>
      </trkpt>
      <trkpt lat="49.13991" lon="2.00952">
        <ele>128.95</ele>
        <time>2014-03-20T10:16:11Z</time>
      </trkpt>
      <trkpt lat="49.13988" lon="2.00999">
        <ele>130.4</ele>
        <time>2014-03-20T10:16:41Z</time>
      </trkpt>
      <trkpt lat="49.13978" lon="2.01035">
        <ele>131.36</ele>
        <time>2014-03-20T10:17:11Z</time>
      </trkpt>
      <trkpt lat="49.13971" lon="2.01086">
        <ele>133.76</ele>
        <time>2014-03-20T10:17:47Z</time>
      </trkpt>
      <trkpt lat="49.13966" lon="2.01145">
        <ele>137.13</ele>
        <time>2014-03-20T10:18:34Z</time>
      </trkpt>
      <trkpt lat="49.13955" lon="2.01211">
        <ele>138.57</ele>
        <time>2014-03-20T10:19:12Z</time>
      </trkpt>
      <trkpt lat="49.1395" lon="2.01263">
        <ele>138.57</ele>
        <time>2014-03-20T10:19:52Z</time>
      </trkpt>
      <trkpt lat="49.13937" lon="2.01316">
        <ele>138.57</ele>
        <time>2014-03-20T10:20:18Z</time>
      </trkpt>
      <trkpt lat="49.13929" lon="2.01368">
        <ele>138.57</ele>
        <time>2014-03-20T10:20:53Z</time>
      </trkpt>
      <trkpt lat="49.13923" lon="2.01414">
        <ele>139.53</ele>
        <time>2014-03-20T10:21:30Z</time>
      </trkpt>
      <trkpt lat="49.1391" lon="2.01478">
        <ele>140.01</ele>
        <time>2014-03-20T10:22:02Z</time>
      </trkpt>
      <trkpt lat="49.13902" lon="2.01531">
        <ele>139.53</ele>
        <time>2014-03-20T10:22:37Z</time>
      </trkpt>
      <trkpt lat="49.13898" lon="2.01587">
        <ele>140.01</ele>
        <time>2014-03-20T10:23:15Z</time>
      </trkpt>
      <trkpt lat="49.13887" lon="2.01643">
        <ele>140.01</ele>
        <time>2014-03-20T10:23:45Z</time>
      </trkpt>
      <trkpt lat="49.1388" lon="2.01695">
        <ele>141.45</ele>
        <time>2014-03-20T10:24:17Z</time>
      </trkpt>
      <trkpt lat="49.1387" lon="2.01741">
        <ele>140.97</ele>
        <time>2014-03-20T10:24:46Z</time>
      </trkpt>
      <trkpt lat="49.13862" lon="2.0178">
        <ele>141.93</ele>
        <time>2014-03-20T10:25:11Z</time>
      </trkpt>
      <trkpt lat="49.13855" lon="2.01816">
        <ele>141.45</ele>
        <time>2014-03-20T10:25:33Z</time>
      </trkpt>
      <trkpt lat="49.13851" lon="2.01853">
        <ele>141.45</ele>
        <time>2014-03-20T10:25:57Z</time>
      </trkpt>
      <trkpt lat="49.13845" lon="2.01888">
        <ele>141.93</ele>
        <time>2014-03-20T10:26:18Z</time>
      </trkpt>
      <trkpt lat="49.1384" lon="2.01923">
        <ele>141.93</ele>
        <time>2014-03-20T10:26:38Z</time>
      </trkpt>
      <trkpt lat="49.13835" lon="2.01951">
        <ele>140.49</ele>
        <time>2014-03-20T10:26:54Z</time>
      </trkpt>
      <trkpt lat="49.13831" lon="2.01982">
        <ele>140.97</ele>
        <time>2014-03-20T10:27:12Z</time>
      </trkpt>
      <trkpt lat="49.13826" lon="2.02011">
        <ele>141.45</ele>
        <time>2014-03-20T10:27:29Z</time>
      </trkpt>
      <trkpt lat="49.13821" lon="2.02035">
        <ele>141.45</ele>
        <time>2014-03-20T10:27:55Z</time>
      </trkpt>
      <trkpt lat="49.13817" lon="2.02065">
        <ele>141.93</ele>
        <time>2014-03-20T10:28:12Z</time>
      </trkpt>
      <trkpt lat="49.13812" lon="2.02092">
        <ele>141.93</ele>
        <time>2014-03-20T10:28:28Z</time>
      </trkpt>
      <trkpt lat="49.13806" lon="2.02121">
        <ele>140.97</ele>
        <time>2014-03-20T10:28:50Z</time>
      </trkpt>
      <trkpt lat="49.13805" lon="2.02148">
        <ele>140.97</ele>
        <time>2014-03-20T10:29:17Z</time>
      </trkpt>
      <trkpt lat="49.13802" lon="2.02176">
        <ele>141.93</ele>
        <time>2014-03-20T10:29:34Z</time>
      </trkpt>
      <trkpt lat="49.13799" lon="2.02206">
        <ele>141.45</ele>
        <time>2014-03-20T10:29:52Z</time>
      </trkpt>
      <trkpt lat="49.13799" lon="2.02235">
        <ele>141.45</ele>
        <time>2014-03-20T10:30:09Z</time>
      </trkpt>
      <trkpt lat="49.13796" lon="2.02264">
        <ele>141.45</ele>
        <time>2014-03-20T10:30:26Z</time>
      </trkpt>
      <trkpt lat="49.13796" lon="2.02291">
        <ele>141.93</ele>
        <time>2014-03-20T10:30:48Z</time>
      </trkpt>
      <trkpt lat="49.13798" lon="2.02318">
        <ele>141.93</ele>
        <time>2014-03-20T10:31:08Z</time>
      </trkpt>
      <trkpt lat="49.138" lon="2.02347">
        <ele>141.93</ele>
        <time>2014-03-20T10:31:26Z</time>
      </trkpt>
      <trkpt lat="49.13803" lon="2.02374">
        <ele>142.41</ele>
        <time>2014-03-20T10:31:44Z</time>
      </trkpt>
      <trkpt lat="49.13806" lon="2.02402">
        <ele>142.41</ele>
        <time>2014-03-20T10:32:03Z</time>
      </trkpt>
      <trkpt lat="49.13811" lon="2.02433">
        <ele>143.85</ele>
        <time>2014-03-20T10:32:22Z</time>
      </trkpt>
      <trkpt lat="49.13816" lon="2.0246">
        <ele>142.89</ele>
        <time>2014-03-20T10:32:39Z</time>
      </trkpt>
      <trkpt lat="49.13821" lon="2.02489">
        <ele>143.37</ele>
        <time>2014-03-20T10:32:59Z</time>
      </trkpt>
      <trkpt lat="49.13828" lon="2.02517">
        <ele>143.37</ele>
        <time>2014-03-20T10:33:17Z</time>
      </trkpt>
      <trkpt lat="49.13834" lon="2.02545">
        <ele>144.82</ele>
        <time>2014-03-20T10:33:40Z</time>
      </trkpt>
      <trkpt lat="49.13837" lon="2.02577">
        <ele>143.37</ele>
        <time>2014-03-20T10:34:01Z</time>
      </trkpt>
      <trkpt lat="49.13852" lon="2.02604">
        <ele>143.85</ele>
        <time>2014-03-20T10:34:19Z</time>
      </trkpt>
      <trkpt lat="49.13863" lon="2.02632">
        <ele>143.85</ele>
        <time>2014-03-20T10:34:38Z</time>
      </trkpt>
      <trkpt lat="49.13867" lon="2.0266">
        <ele>143.37</ele>
        <time>2014-03-20T10:34:56Z</time>
      </trkpt>
      <trkpt lat="49.13876" lon="2.0269">
        <ele>143.37</ele>
        <time>2014-03-20T10:35:20Z</time>
      </trkpt>
      <trkpt lat="49.13894" lon="2.02725">
        <ele>142.89</ele>
        <time>2014-03-20T10:35:47Z</time>
      </trkpt>
      <trkpt lat="49.13924" lon="2.02757">
        <ele>142.41</ele>
        <time>2014-03-20T10:36:11Z</time>
      </trkpt>
      <trkpt lat="49.13944" lon="2.02788">
        <ele>143.37</ele>
        <time>2014-03-20T10:36:34Z</time>
      </trkpt>
      <trkpt lat="49.1396" lon="2.02816">
        <ele>143.37</ele>
        <time>2014-03-20T10:36:58Z</time>
      </trkpt>
      <trkpt lat="49.13974" lon="2.0285">
        <ele>143.37</ele>
        <time>2014-03-20T10:37:21Z</time>
      </trkpt>
      <trkpt lat="49.13989" lon="2.02878">
        <ele>143.37</ele>
        <time>2014-03-20T10:37:41Z</time>
      </trkpt>
      <trkpt lat="49.14001" lon="2.02903">
        <ele>142.89</ele>
        <time>2014-03-20T10:38:02Z</time>
      </trkpt>
      <trkpt lat="49.1401" lon="2.02921">
        <ele>142.89</ele>
        <time>2014-03-20T10:40:08Z</time>
      </trkpt>
      <trkpt lat="49.14023" lon="2.02947">
        <ele>142.41</ele>
        <time>2014-03-20T10:40:42Z</time>
      </trkpt>
      <trkpt lat="49.14035" lon="2.02972">
        <ele>142.89</ele>
        <time>2014-03-20T10:41:00Z</time>
      </trkpt>
      <trkpt lat="49.14046" lon="2.02995">
        <ele>142.89</ele>
        <time>2014-03-20T10:41:18Z</time>
      </trkpt>
      <trkpt lat="49.14056" lon="2.03009">
        <ele>142.89</ele>
        <time>2014-03-20T10:41:52Z</time>
      </trkpt>
      <trkpt lat="49.14063" lon="2.02985">
        <ele>143.37</ele>
        <time>2014-03-20T10:42:31Z</time>
      </trkpt>
      <trkpt lat="49.14068" lon="2.02957">
        <ele>142.89</ele>
        <time>2014-03-20T10:42:51Z</time>
      </trkpt>
      <trkpt lat="49.14074" lon="2.02931">
        <ele>142.41</ele>
        <time>2014-03-20T10:43:08Z</time>
      </trkpt>
      <trkpt lat="49.14081" lon="2.02904">
        <ele>141.93</ele>
        <time>2014-03-20T10:43:28Z</time>
      </trkpt>
      <trkpt lat="49.14089" lon="2.02877">
        <ele>142.41</ele>
        <time>2014-03-20T10:43:48Z</time>
      </trkpt>
      <trkpt lat="49.14097" lon="2.02853">
        <ele>143.85</ele>
        <time>2014-03-20T10:44:05Z</time>
      </trkpt>
      <trkpt lat="49.14103" lon="2.02826">
        <ele>144.34</ele>
        <time>2014-03-20T10:44:23Z</time>
      </trkpt>
      <trkpt lat="49.14111" lon="2.028">
        <ele>144.34</ele>
        <time>2014-03-20T10:44:40Z</time>
      </trkpt>
      <trkpt lat="49.14122" lon="2.0278">
        <ele>145.3</ele>
        <time>2014-03-20T10:45:00Z</time>
      </trkpt>
      <trkpt lat="49.14129" lon="2.02756">
        <ele>144.82</ele>
        <time>2014-03-20T10:45:17Z</time>
      </trkpt>
      <trkpt lat="49.14137" lon="2.02731">
        <ele>145.78</ele>
        <time>2014-03-20T10:45:35Z</time>
      </trkpt>
      <trkpt lat="49.14145" lon="2.02705">
        <ele>147.22</ele>
        <time>2014-03-20T10:45:53Z</time>
      </trkpt>
      <trkpt lat="49.14151" lon="2.02679">
        <ele>148.66</ele>
        <time>2014-03-20T10:46:10Z</time>
      </trkpt>
      <trkpt lat="49.14158" lon="2.02652">
        <ele>150.1</ele>
        <time>2014-03-20T10:46:27Z</time>
      </trkpt>
      <trkpt lat="49.14164" lon="2.02625">
        <ele>151.06</ele>
        <time>2014-03-20T10:46:45Z</time>
      </trkpt>
      <trkpt lat="49.14171" lon="2.02599">
        <ele>152.51</ele>
        <time>2014-03-20T10:47:03Z</time>
      </trkpt>
      <trkpt lat="49.14178" lon="2.02573">
        <ele>152.99</ele>
        <time>2014-03-20T10:47:21Z</time>
      </trkpt>
      <trkpt lat="49.14184" lon="2.02547">
        <ele>155.39</ele>
        <time>2014-03-20T10:47:39Z</time>
      </trkpt>
      <trkpt lat="49.14191" lon="2.0252">
        <ele>156.35</ele>
        <time>2014-03-20T10:47:57Z</time>
      </trkpt>
      <trkpt lat="49.14199" lon="2.02495">
        <ele>157.31</ele>
        <time>2014-03-20T10:48:15Z</time>
      </trkpt>
      <trkpt lat="49.14206" lon="2.02465">
        <ele>158.75</ele>
        <time>2014-03-20T10:48:34Z</time>
      </trkpt>
      <trkpt lat="49.14211" lon="2.02434">
        <ele>159.24</ele>
        <time>2014-03-20T10:48:56Z</time>
      </trkpt>
      <trkpt lat="49.14213" lon="2.02413">
        <ele>159.24</ele>
        <time>2014-03-20T10:49:51Z</time>
      </trkpt>
      <trkpt lat="49.14219" lon="2.02379">
        <ele>158.75</ele>
        <time>2014-03-20T10:50:19Z</time>
      </trkpt>
      <trkpt lat="49.14224" lon="2.02358">
        <ele>161.16</ele>
        <time>2014-03-20T10:50:59Z</time>
      </trkpt>
      <trkpt lat="49.14237" lon="2.02335">
        <ele>160.2</ele>
        <time>2014-03-20T10:51:19Z</time>
      </trkpt>
      <trkpt lat="49.14247" lon="2.02309">
        <ele>160.68</ele>
        <time>2014-03-20T10:51:37Z</time>
      </trkpt>
      <trkpt lat="49.14253" lon="2.02279">
        <ele>161.64</ele>
        <time>2014-03-20T10:51:57Z</time>
      </trkpt>
      <trkpt lat="49.1426" lon="2.02251">
        <ele>161.64</ele>
        <time>2014-03-20T10:52:16Z</time>
      </trkpt>
      <trkpt lat="49.14266" lon="2.02223">
        <ele>161.16</ele>
        <time>2014-03-20T10:52:37Z</time>
      </trkpt>
      <trkpt lat="49.14263" lon="2.02195">
        <ele>162.12</ele>
        <time>2014-03-20T10:53:10Z</time>
      </trkpt>
      <trkpt lat="49.14261" lon="2.02171">
        <ele>162.12</ele>
        <time>2014-03-20T10:54:07Z</time>
      </trkpt>
      <trkpt lat="49.14274" lon="2.02173">
        <ele>161.64</ele>
        <time>2014-03-20T10:54:53Z</time>
      </trkpt>
      <trkpt lat="49.1429" lon="2.02164">
        <ele>160.2</ele>
        <time>2014-03-20T10:55:18Z</time>
      </trkpt>
      <trkpt lat="49.14304" lon="2.02179">
        <ele>157.79</ele>
        <time>2014-03-20T11:16:01Z</time>
      </trkpt>
      <trkpt lat="49.14292" lon="2.02174">
        <ele>159.72</ele>
        <time>2014-03-20T11:28:46Z</time>
      </trkpt>
      <trkpt lat="49.14289" lon="2.02157">
        <ele>160.68</ele>
        <time>2014-03-20T11:31:05Z</time>
      </trkpt>
      <trkpt lat="49.14273" lon="2.02171">
        <ele>161.16</ele>
        <time>2014-03-20T11:35:22Z</time>
      </trkpt>
      <trkpt lat="49.14251" lon="2.02166">
        <ele>163.08</ele>
        <time>2014-03-20T11:35:50Z</time>
      </trkpt>
      <trkpt lat="49.14236" lon="2.02148">
        <ele>163.56</ele>
        <time>2014-03-20T11:36:10Z</time>
      </trkpt>
      <trkpt lat="49.14234" lon="2.02115">
        <ele>164.04</ele>
        <time>2014-03-20T11:36:38Z</time>
      </trkpt>
      <trkpt lat="49.14242" lon="2.0208">
        <ele>163.56</ele>
        <time>2014-03-20T11:37:01Z</time>
      </trkpt>
      <trkpt lat="49.14254" lon="2.02057">
        <ele>163.08</ele>
        <time>2014-03-20T11:37:19Z</time>
      </trkpt>
      <trkpt lat="49.14265" lon="2.0203">
        <ele>162.6</ele>
        <time>2014-03-20T11:37:36Z</time>
      </trkpt>
      <trkpt lat="49.14279" lon="2.02009">
        <ele>162.12</ele>
        <time>2014-03-20T11:37:54Z</time>
      </trkpt>
      <trkpt lat="49.14295" lon="2.01989">
        <ele>161.64</ele>
        <time>2014-03-20T11:38:13Z</time>
      </trkpt>
      <trkpt lat="49.14308" lon="2.01968">
        <ele>161.64</ele>
        <time>2014-03-20T11:38:32Z</time>
      </trkpt>
      <trkpt lat="49.14316" lon="2.0194">
        <ele>160.68</ele>
        <time>2014-03-20T11:38:52Z</time>
      </trkpt>
      <trkpt lat="49.14319" lon="2.01912">
        <ele>160.68</ele>
        <time>2014-03-20T11:39:12Z</time>
      </trkpt>
      <trkpt lat="49.14321" lon="2.01876">
        <ele>159.24</ele>
        <time>2014-03-20T11:39:30Z</time>
      </trkpt>
      <trkpt lat="49.1431" lon="2.01848">
        <ele>159.72</ele>
        <time>2014-03-20T11:39:45Z</time>
      </trkpt>
      <trkpt lat="49.14306" lon="2.01819">
        <ele>159.72</ele>
        <time>2014-03-20T11:40:01Z</time>
      </trkpt>
      <trkpt lat="49.14307" lon="2.01792">
        <ele>158.75</ele>
        <time>2014-03-20T11:40:17Z</time>
      </trkpt>
      <trkpt lat="49.14312" lon="2.01765">
        <ele>158.27</ele>
        <time>2014-03-20T11:40:34Z</time>
      </trkpt>
      <trkpt lat="49.14321" lon="2.01741">
        <ele>157.31</ele>
        <time>2014-03-20T11:40:49Z</time>
      </trkpt>
      <trkpt lat="49.14333" lon="2.01714">
        <ele>156.83</ele>
        <time>2014-03-20T11:41:06Z</time>
      </trkpt>
      <trkpt lat="49.14343" lon="2.01689">
        <ele>156.35</ele>
        <time>2014-03-20T11:41:25Z</time>
      </trkpt>
      <trkpt lat="49.14358" lon="2.01667">
        <ele>156.83</ele>
        <time>2014-03-20T11:41:44Z</time>
      </trkpt>
      <trkpt lat="49.14371" lon="2.01647">
        <ele>157.31</ele>
        <time>2014-03-20T11:42:02Z</time>
      </trkpt>
      <trkpt lat="49.14381" lon="2.01627">
        <ele>157.31</ele>
        <time>2014-03-20T11:42:21Z</time>
      </trkpt>
      <trkpt lat="49.14395" lon="2.01605">
        <ele>157.79</ele>
        <time>2014-03-20T11:42:43Z</time>
      </trkpt>
      <trkpt lat="49.14417" lon="2.01573">
        <ele>158.75</ele>
        <time>2014-03-20T11:43:06Z</time>
      </trkpt>
      <trkpt lat="49.14432" lon="2.01549">
        <ele>158.27</ele>
        <time>2014-03-20T11:43:30Z</time>
      </trkpt>
      <trkpt lat="49.14449" lon="2.01524">
        <ele>159.24</ele>
        <time>2014-03-20T11:43:57Z</time>
      </trkpt>
      <trkpt lat="49.14469" lon="2.01493">
        <ele>160.2</ele>
        <time>2014-03-20T11:44:21Z</time>
      </trkpt>
      <trkpt lat="49.14492" lon="2.01465">
        <ele>161.16</ele>
        <time>2014-03-20T11:44:43Z</time>
      </trkpt>
      <trkpt lat="49.14509" lon="2.01438">
        <ele>162.12</ele>
        <time>2014-03-20T11:45:01Z</time>
      </trkpt>
      <trkpt lat="49.14524" lon="2.01409">
        <ele>162.6</ele>
        <time>2014-03-20T11:45:19Z</time>
      </trkpt>
      <trkpt lat="49.14533" lon="2.01385">
        <ele>163.56</ele>
        <time>2014-03-20T11:45:37Z</time>
      </trkpt>
      <trkpt lat="49.14544" lon="2.01358">
        <ele>165.48</ele>
        <time>2014-03-20T11:45:56Z</time>
      </trkpt>
      <trkpt lat="49.14553" lon="2.01331">
        <ele>166.45</ele>
        <time>2014-03-20T11:46:15Z</time>
      </trkpt>
      <trkpt lat="49.14564" lon="2.01302">
        <ele>167.41</ele>
        <time>2014-03-20T11:46:36Z</time>
      </trkpt>
      <trkpt lat="49.14577" lon="2.01269">
        <ele>168.37</ele>
        <time>2014-03-20T11:46:53Z</time>
      </trkpt>
      <trkpt lat="49.14586" lon="2.01245">
        <ele>169.33</ele>
        <time>2014-03-20T11:47:10Z</time>
      </trkpt>
      <trkpt lat="49.14592" lon="2.01224">
        <ele>169.81</ele>
        <time>2014-03-20T11:47:38Z</time>
      </trkpt>
      <trkpt lat="49.14602" lon="2.01182">
        <ele>171.25</ele>
        <time>2014-03-20T11:48:05Z</time>
      </trkpt>
      <trkpt lat="49.1461" lon="2.01141">
        <ele>172.69</ele>
        <time>2014-03-20T11:48:35Z</time>
      </trkpt>
      <trkpt lat="49.14624" lon="2.01096">
        <ele>173.17</ele>
        <time>2014-03-20T11:49:06Z</time>
      </trkpt>
      <trkpt lat="49.14633" lon="2.01069">
        <ele>174.14</ele>
        <time>2014-03-20T11:49:34Z</time>
      </trkpt>
      <trkpt lat="49.14639" lon="2.01025">
        <ele>173.66</ele>
        <time>2014-03-20T11:49:58Z</time>
      </trkpt>
      <trkpt lat="49.14653" lon="2.00994">
        <ele>174.62</ele>
        <time>2014-03-20T11:50:20Z</time>
      </trkpt>
      <trkpt lat="49.14662" lon="2.0096">
        <ele>173.66</ele>
        <time>2014-03-20T11:50:43Z</time>
      </trkpt>
      <trkpt lat="49.14676" lon="2.00926">
        <ele>173.66</ele>
        <time>2014-03-20T11:51:09Z</time>
      </trkpt>
      <trkpt lat="49.14691" lon="2.00891">
        <ele>173.66</ele>
        <time>2014-03-20T11:51:32Z</time>
      </trkpt>
      <trkpt lat="49.147" lon="2.00862">
        <ele>173.17</ele>
        <time>2014-03-20T11:51:56Z</time>
      </trkpt>
      <trkpt lat="49.14713" lon="2.00829">
        <ele>171.73</ele>
        <time>2014-03-20T11:52:24Z</time>
      </trkpt>
      <trkpt lat="49.14733" lon="2.0079">
        <ele>171.25</ele>
        <time>2014-03-20T11:52:46Z</time>
      </trkpt>
      <trkpt lat="49.14745" lon="2.00762">
        <ele>171.73</ele>
        <time>2014-03-20T11:53:07Z</time>
      </trkpt>
      <trkpt lat="49.14755" lon="2.00729">
        <ele>171.73</ele>
        <time>2014-03-20T11:53:30Z</time>
      </trkpt>
      <trkpt lat="49.14765" lon="2.00696">
        <ele>171.25</ele>
        <time>2014-03-20T11:53:54Z</time>
      </trkpt>
      <trkpt lat="49.14775" lon="2.00661">
        <ele>170.29</ele>
        <time>2014-03-20T11:54:16Z</time>
      </trkpt>
      <trkpt lat="49.14783" lon="2.00636">
        <ele>168.85</ele>
        <time>2014-03-20T11:54:49Z</time>
      </trkpt>
      <trkpt lat="49.14804" lon="2.00568">
        <ele>167.41</ele>
        <time>2014-03-20T11:55:22Z</time>
      </trkpt>
      <trkpt lat="49.1481" lon="2.00524">
        <ele>166.93</ele>
        <time>2014-03-20T11:55:47Z</time>
      </trkpt>
      <trkpt lat="49.14812" lon="2.00494">
        <ele>165.96</ele>
        <time>2014-03-20T11:56:17Z</time>
      </trkpt>
      <trkpt lat="49.14817" lon="2.00435">
        <ele>164.04</ele>
        <time>2014-03-20T11:56:48Z</time>
      </trkpt>
      <trkpt lat="49.14821" lon="2.00386">
        <ele>165.48</ele>
        <time>2014-03-20T11:57:12Z</time>
      </trkpt>
      <trkpt lat="49.14828" lon="2.00342">
        <ele>165.96</ele>
        <time>2014-03-20T11:57:40Z</time>
      </trkpt>
      <trkpt lat="49.14831" lon="2.00301">
        <ele>166.93</ele>
        <time>2014-03-20T11:58:05Z</time>
      </trkpt>
      <trkpt lat="49.14828" lon="2.00256">
        <ele>167.89</ele>
        <time>2014-03-20T11:58:34Z</time>
      </trkpt>
      <trkpt lat="49.14822" lon="2.00208">
        <ele>169.33</ele>
        <time>2014-03-20T11:59:08Z</time>
      </trkpt>
      <trkpt lat="49.14819" lon="2.00152">
        <ele>171.25</ele>
        <time>2014-03-20T11:59:35Z</time>
      </trkpt>
      <trkpt lat="49.14816" lon="2.00109">
        <ele>170.77</ele>
        <time>2014-03-20T11:59:56Z</time>
      </trkpt>
      <trkpt lat="49.14826" lon="2.00075">
        <ele>172.21</ele>
        <time>2014-03-20T12:00:19Z</time>
      </trkpt>
      <trkpt lat="49.14837" lon="2.00041">
        <ele>173.66</ele>
        <time>2014-03-20T12:01:04Z</time>
      </trkpt>
      <trkpt lat="49.14845" lon="2.00004">
        <ele>175.1</ele>
        <time>2014-03-20T12:01:27Z</time>
      </trkpt>
      <trkpt lat="49.14863" lon="1.99955">
        <ele>175.1</ele>
        <time>2014-03-20T12:01:55Z</time>
      </trkpt>
      <trkpt lat="49.14875" lon="1.99924">
        <ele>176.06</ele>
        <time>2014-03-20T12:02:17Z</time>
      </trkpt>
      <trkpt lat="49.14885" lon="1.99885">
        <ele>173.17</ele>
        <time>2014-03-20T12:02:40Z</time>
      </trkpt>
      <trkpt lat="49.14894" lon="1.99839">
        <ele>171.25</ele>
        <time>2014-03-20T12:03:08Z</time>
      </trkpt>
      <trkpt lat="49.14895" lon="1.99783">
        <ele>168.85</ele>
        <time>2014-03-20T12:03:39Z</time>
      </trkpt>
      <trkpt lat="49.14884" lon="1.99735">
        <ele>168.85</ele>
        <time>2014-03-20T12:04:16Z</time>
      </trkpt>
      <trkpt lat="49.14871" lon="1.99686">
        <ele>167.89</ele>
        <time>2014-03-20T12:04:47Z</time>
      </trkpt>
      <trkpt lat="49.14857" lon="1.99637">
        <ele>168.37</ele>
        <time>2014-03-20T12:05:13Z</time>
      </trkpt>
      <trkpt lat="49.14846" lon="1.99597">
        <ele>167.89</ele>
        <time>2014-03-20T12:05:37Z</time>
      </trkpt>
      <trkpt lat="49.14833" lon="1.99562">
        <ele>169.81</ele>
        <time>2014-03-20T12:06:04Z</time>
      </trkpt>
      <trkpt lat="49.14817" lon="1.99519">
        <ele>170.29</ele>
        <time>2014-03-20T12:06:27Z</time>
      </trkpt>
      <trkpt lat="49.14807" lon="1.99481">
        <ele>170.77</ele>
        <time>2014-03-20T12:06:51Z</time>
      </trkpt>
      <trkpt lat="49.14789" lon="1.99439">
        <ele>171.25</ele>
        <time>2014-03-20T12:07:12Z</time>
      </trkpt>
      <trkpt lat="49.14775" lon="1.99403">
        <ele>171.25</ele>
        <time>2014-03-20T12:07:35Z</time>
      </trkpt>
      <trkpt lat="49.14769" lon="1.99377">
        <ele>170.29</ele>
        <time>2014-03-20T12:07:51Z</time>
      </trkpt>
      <trkpt lat="49.14765" lon="1.99346">
        <ele>170.29</ele>
        <time>2014-03-20T12:08:04Z</time>
      </trkpt>
      <trkpt lat="49.1477" lon="1.99316">
        <ele>170.29</ele>
        <time>2014-03-20T12:08:21Z</time>
      </trkpt>
      <trkpt lat="49.1478" lon="1.99292">
        <ele>170.29</ele>
        <time>2014-03-20T12:08:39Z</time>
      </trkpt>
      <trkpt lat="49.1479" lon="1.99269">
        <ele>171.25</ele>
        <time>2014-03-20T12:08:55Z</time>
      </trkpt>
      <trkpt lat="49.14796" lon="1.9924">
        <ele>168.85</ele>
        <time>2014-03-20T12:09:12Z</time>
      </trkpt>
      <trkpt lat="49.14802" lon="1.99211">
        <ele>167.41</ele>
        <time>2014-03-20T12:09:29Z</time>
      </trkpt>
      <trkpt lat="49.14806" lon="1.99181">
        <ele>162.12</ele>
        <time>2014-03-20T12:09:47Z</time>
      </trkpt>
      <trkpt lat="49.14806" lon="1.99147">
        <ele>165.48</ele>
        <time>2014-03-20T12:10:18Z</time>
      </trkpt>
      <trkpt lat="49.14814" lon="1.99112">
        <ele>165.48</ele>
        <time>2014-03-20T12:10:39Z</time>
      </trkpt>
      <trkpt lat="49.14825" lon="1.99085">
        <ele>165.48</ele>
        <time>2014-03-20T12:10:58Z</time>
      </trkpt>
      <trkpt lat="49.14833" lon="1.99079">
        <ele>165.48</ele>
        <time>2014-03-20T12:12:13Z</time>
      </trkpt>
      <trkpt lat="49.14846" lon="1.99067">
        <ele>165.48</ele>
        <time>2014-03-20T12:12:55Z</time>
      </trkpt>
      <trkpt lat="49.14856" lon="1.99044">
        <ele>165</ele>
        <time>2014-03-20T12:13:16Z</time>
      </trkpt>
      <trkpt lat="49.14872" lon="1.99026">
        <ele>166.45</ele>
        <time>2014-03-20T12:13:37Z</time>
      </trkpt>
      <trkpt lat="49.14897" lon="1.99009">
        <ele>166.45</ele>
        <time>2014-03-20T12:14:01Z</time>
      </trkpt>
      <trkpt lat="49.14915" lon="1.98991">
        <ele>167.89</ele>
        <time>2014-03-20T12:14:21Z</time>
      </trkpt>
      <trkpt lat="49.14929" lon="1.98968">
        <ele>168.85</ele>
        <time>2014-03-20T12:14:41Z</time>
      </trkpt>
      <trkpt lat="49.14933" lon="1.98942">
        <ele>166.93</ele>
        <time>2014-03-20T12:15:01Z</time>
      </trkpt>
      <trkpt lat="49.14924" lon="1.98925">
        <ele>167.41</ele>
        <time>2014-03-20T12:15:45Z</time>
      </trkpt>
      <trkpt lat="49.14928" lon="1.98914">
        <ele>165.48</ele>
        <time>2014-03-20T12:20:36Z</time>
      </trkpt>
      <trkpt lat="49.14938" lon="1.98892">
        <ele>163.08</ele>
        <time>2014-03-20T12:20:55Z</time>
      </trkpt>
      <trkpt lat="49.14941" lon="1.98861">
        <ele>161.64</ele>
        <time>2014-03-20T12:21:11Z</time>
      </trkpt>
      <trkpt lat="49.14952" lon="1.98838">
        <ele>160.2</ele>
        <time>2014-03-20T12:21:26Z</time>
      </trkpt>
      <trkpt lat="49.1497" lon="1.98826">
        <ele>159.24</ele>
        <time>2014-03-20T12:21:43Z</time>
      </trkpt>
      <trkpt lat="49.14985" lon="1.98801">
        <ele>156.35</ele>
        <time>2014-03-20T12:22:04Z</time>
      </trkpt>
      <trkpt lat="49.14998" lon="1.98774">
        <ele>154.43</ele>
        <time>2014-03-20T12:22:24Z</time>
      </trkpt>
      <trkpt lat="49.15014" lon="1.98748">
        <ele>152.03</ele>
        <time>2014-03-20T12:22:43Z</time>
      </trkpt>
      <trkpt lat="49.15029" lon="1.98727">
        <ele>150.58</ele>
        <time>2014-03-20T12:23:03Z</time>
      </trkpt>
      <trkpt lat="49.15043" lon="1.98709">
        <ele>149.62</ele>
        <time>2014-03-20T12:23:20Z</time>
      </trkpt>
      <trkpt lat="49.15062" lon="1.98688">
        <ele>150.1</ele>
        <time>2014-03-20T12:23:40Z</time>
      </trkpt>
      <trkpt lat="49.15077" lon="1.98664">
        <ele>150.58</ele>
        <time>2014-03-20T12:24:03Z</time>
      </trkpt>
      <trkpt lat="49.15098" lon="1.98642">
        <ele>152.51</ele>
        <time>2014-03-20T12:24:27Z</time>
      </trkpt>
      <trkpt lat="49.15113" lon="1.98626">
        <ele>152.99</ele>
        <time>2014-03-20T12:24:49Z</time>
      </trkpt>
      <trkpt lat="49.15122" lon="1.986">
        <ele>153.47</ele>
        <time>2014-03-20T12:25:11Z</time>
      </trkpt>
      <trkpt lat="49.15133" lon="1.98573">
        <ele>153.47</ele>
        <time>2014-03-20T12:25:33Z</time>
      </trkpt>
      <trkpt lat="49.15141" lon="1.98542">
        <ele>152.99</ele>
        <time>2014-03-20T12:25:56Z</time>
      </trkpt>
      <trkpt lat="49.15154" lon="1.98512">
        <ele>153.95</ele>
        <time>2014-03-20T12:26:20Z</time>
      </trkpt>
      <trkpt lat="49.15139" lon="1.98503">
        <ele>152.03</ele>
        <time>2014-03-20T12:26:45Z</time>
      </trkpt>
      <trkpt lat="49.15115" lon="1.98492">
        <ele>150.58</ele>
        <time>2014-03-20T12:27:04Z</time>
      </trkpt>
      <trkpt lat="49.15094" lon="1.98477">
        <ele>150.1</ele>
        <time>2014-03-20T12:27:22Z</time>
      </trkpt>
      <trkpt lat="49.15079" lon="1.98458">
        <ele>148.66</ele>
        <time>2014-03-20T12:27:42Z</time>
      </trkpt>
      <trkpt lat="49.15069" lon="1.98461">
        <ele>148.18</ele>
        <time>2014-03-20T12:28:41Z</time>
      </trkpt>
      <trkpt lat="49.15047" lon="1.98461">
        <ele>147.7</ele>
        <time>2014-03-20T12:28:56Z</time>
      </trkpt>
      <trkpt lat="49.15029" lon="1.9845">
        <ele>147.22</ele>
        <time>2014-03-20T12:29:12Z</time>
      </trkpt>
      <trkpt lat="49.15011" lon="1.98437">
        <ele>146.74</ele>
        <time>2014-03-20T12:29:28Z</time>
      </trkpt>
      <trkpt lat="49.14993" lon="1.98428">
        <ele>146.26</ele>
        <time>2014-03-20T12:29:44Z</time>
      </trkpt>
      <trkpt lat="49.14974" lon="1.98417">
        <ele>145.3</ele>
        <time>2014-03-20T12:30:01Z</time>
      </trkpt>
      <trkpt lat="49.14953" lon="1.98404">
        <ele>143.37</ele>
        <time>2014-03-20T12:30:21Z</time>
      </trkpt>
      <trkpt lat="49.1493" lon="1.9839">
        <ele>142.41</ele>
        <time>2014-03-20T12:30:40Z</time>
      </trkpt>
      <trkpt lat="49.14915" lon="1.98366">
        <ele>141.93</ele>
        <time>2014-03-20T12:30:56Z</time>
      </trkpt>
      <trkpt lat="49.14903" lon="1.9834">
        <ele>141.45</ele>
        <time>2014-03-20T12:31:11Z</time>
      </trkpt>
      <trkpt lat="49.14893" lon="1.98312">
        <ele>140.49</ele>
        <time>2014-03-20T12:31:30Z</time>
      </trkpt>
      <trkpt lat="49.14882" lon="1.9829">
        <ele>139.05</ele>
        <time>2014-03-20T12:31:45Z</time>
      </trkpt>
      <trkpt lat="49.14872" lon="1.98267">
        <ele>138.57</ele>
        <time>2014-03-20T12:32:21Z</time>
      </trkpt>
      <trkpt lat="49.1486" lon="1.98277">
        <ele>137.61</ele>
        <time>2014-03-20T12:33:26Z</time>
      </trkpt>
      <trkpt lat="49.14842" lon="1.98295">
        <ele>137.13</ele>
        <time>2014-03-20T12:33:50Z</time>
      </trkpt>
      <trkpt lat="49.14822" lon="1.98315">
        <ele>136.16</ele>
        <time>2014-03-20T12:34:12Z</time>
      </trkpt>
      <trkpt lat="49.14803" lon="1.98337">
        <ele>134.72</ele>
        <time>2014-03-20T12:34:34Z</time>
      </trkpt>
      <trkpt lat="49.14784" lon="1.98357">
        <ele>133.28</ele>
        <time>2014-03-20T12:34:55Z</time>
      </trkpt>
      <trkpt lat="49.14764" lon="1.98379">
        <ele>131.84</ele>
        <time>2014-03-20T12:35:17Z</time>
      </trkpt>
      <trkpt lat="49.14755" lon="1.98408">
        <ele>130.88</ele>
        <time>2014-03-20T12:35:36Z</time>
      </trkpt>
      <trkpt lat="49.14743" lon="1.98434">
        <ele>129.92</ele>
        <time>2014-03-20T12:35:59Z</time>
      </trkpt>
      <trkpt lat="49.14729" lon="1.98446">
        <ele>128.47</ele>
        <time>2014-03-20T12:36:27Z</time>
      </trkpt>
      <trkpt lat="49.14742" lon="1.98431">
        <ele>127.51</ele>
        <time>2014-03-20T12:36:59Z</time>
      </trkpt>
      <trkpt lat="49.14751" lon="1.98398">
        <ele>126.07</ele>
        <time>2014-03-20T12:38:01Z</time>
      </trkpt>
      <trkpt lat="49.14752" lon="1.9836">
        <ele>124.63</ele>
        <time>2014-03-20T12:38:23Z</time>
      </trkpt>
      <trkpt lat="49.14757" lon="1.98325">
        <ele>124.15</ele>
        <time>2014-03-20T12:38:43Z</time>
      </trkpt>
      <trkpt lat="49.14758" lon="1.98285">
        <ele>124.63</ele>
        <time>2014-03-20T12:39:06Z</time>
      </trkpt>
      <trkpt lat="49.14755" lon="1.98247">
        <ele>124.63</ele>
        <time>2014-03-20T12:39:28Z</time>
      </trkpt>
      <trkpt lat="49.14751" lon="1.98205">
        <ele>123.19</ele>
        <time>2014-03-20T12:39:52Z</time>
      </trkpt>
      <trkpt lat="49.14742" lon="1.98177">
        <ele>122.71</ele>
        <time>2014-03-20T12:40:10Z</time>
      </trkpt>
      <trkpt lat="49.14735" lon="1.98146">
        <ele>122.22</ele>
        <time>2014-03-20T12:40:31Z</time>
      </trkpt>
      <trkpt lat="49.14724" lon="1.98114">
        <ele>122.22</ele>
        <time>2014-03-20T12:40:53Z</time>
      </trkpt>
      <trkpt lat="49.14711" lon="1.98082">
        <ele>123.67</ele>
        <time>2014-03-20T12:41:13Z</time>
      </trkpt>
      <trkpt lat="49.14703" lon="1.98053">
        <ele>123.67</ele>
        <time>2014-03-20T12:41:30Z</time>
      </trkpt>
      <trkpt lat="49.14693" lon="1.98026">
        <ele>123.19</ele>
        <time>2014-03-20T12:41:46Z</time>
      </trkpt>
      <trkpt lat="49.14684" lon="1.97999">
        <ele>122.22</ele>
        <time>2014-03-20T12:42:02Z</time>
      </trkpt>
      <trkpt lat="49.14677" lon="1.97974">
        <ele>121.26</ele>
        <time>2014-03-20T12:42:19Z</time>
      </trkpt>
      <trkpt lat="49.14667" lon="1.9795">
        <ele>120.78</ele>
        <time>2014-03-20T12:42:36Z</time>
      </trkpt>
      <trkpt lat="49.14659" lon="1.97923">
        <ele>119.82</ele>
        <time>2014-03-20T12:42:53Z</time>
      </trkpt>
      <trkpt lat="49.14652" lon="1.97892">
        <ele>119.82</ele>
        <time>2014-03-20T12:43:12Z</time>
      </trkpt>
      <trkpt lat="49.14644" lon="1.97865">
        <ele>119.34</ele>
        <time>2014-03-20T12:43:30Z</time>
      </trkpt>
      <trkpt lat="49.14635" lon="1.97837">
        <ele>118.86</ele>
        <time>2014-03-20T12:43:47Z</time>
      </trkpt>
      <trkpt lat="49.1463" lon="1.97808">
        <ele>117.42</ele>
        <time>2014-03-20T12:44:06Z</time>
      </trkpt>
      <trkpt lat="49.14623" lon="1.97777">
        <ele>116.94</ele>
        <time>2014-03-20T12:44:25Z</time>
      </trkpt>
      <trkpt lat="49.14617" lon="1.97751">
        <ele>116.94</ele>
        <time>2014-03-20T12:45:42Z</time>
      </trkpt>
      <trkpt lat="49.14613" lon="1.97717">
        <ele>116.94</ele>
        <time>2014-03-20T12:46:09Z</time>
      </trkpt>
      <trkpt lat="49.14603" lon="1.97691">
        <ele>115.98</ele>
        <time>2014-03-20T12:46:41Z</time>
      </trkpt>
      <trkpt lat="49.14594" lon="1.97669">
        <ele>115.5</ele>
        <time>2014-03-20T12:47:59Z</time>
      </trkpt>
      <trkpt lat="49.14568" lon="1.9765">
        <ele>113.57</ele>
        <time>2014-03-20T12:48:30Z</time>
      </trkpt>
      <trkpt lat="49.14549" lon="1.97634">
        <ele>113.09</ele>
        <time>2014-03-20T12:48:50Z</time>
      </trkpt>
      <trkpt lat="49.14548" lon="1.97602">
        <ele>113.09</ele>
        <time>2014-03-20T12:49:07Z</time>
      </trkpt>
      <trkpt lat="49.14547" lon="1.97571">
        <ele>111.65</ele>
        <time>2014-03-20T12:49:25Z</time>
      </trkpt>
      <trkpt lat="49.14548" lon="1.97537">
        <ele>111.65</ele>
        <time>2014-03-20T12:49:45Z</time>
      </trkpt>
      <trkpt lat="49.1455" lon="1.97503">
        <ele>111.65</ele>
        <time>2014-03-20T12:50:04Z</time>
      </trkpt>
      <trkpt lat="49.14554" lon="1.97473">
        <ele>110.69</ele>
        <time>2014-03-20T12:50:22Z</time>
      </trkpt>
      <trkpt lat="49.14558" lon="1.97441">
        <ele>110.21</ele>
        <time>2014-03-20T12:50:39Z</time>
      </trkpt>
      <trkpt lat="49.14561" lon="1.97409">
        <ele>109.25</ele>
        <time>2014-03-20T12:50:57Z</time>
      </trkpt>
      <trkpt lat="49.14564" lon="1.97377">
        <ele>108.29</ele>
        <time>2014-03-20T12:51:14Z</time>
      </trkpt>
      <trkpt lat="49.14567" lon="1.97346">
        <ele>107.81</ele>
        <time>2014-03-20T12:51:31Z</time>
      </trkpt>
      <trkpt lat="49.14572" lon="1.97316">
        <ele>107.32</ele>
        <time>2014-03-20T12:51:49Z</time>
      </trkpt>
      <trkpt lat="49.14577" lon="1.97287">
        <ele>106.84</ele>
        <time>2014-03-20T12:52:05Z</time>
      </trkpt>
      <trkpt lat="49.14583" lon="1.97268">
        <ele>105.4</ele>
        <time>2014-03-20T12:52:51Z</time>
      </trkpt>
    </trkseg>
  </trk>
</gpx>